Zonguldak, Zonguldak Airport (LTAS)

NameZonguldak Airport
CityZonguldak
CountryTurkey
ICAOLTAS
IATAONQ
Altitude13 m
CoordinatesGoogle Map
Live Air TrafficLiveATC.net
METARLTAS 271250Z 16006KT 130V210 9999 SCT035 BKN100 21/02 Q1005
2020-02-27 12:50:00 Wind: South-Southeast (160°) 3.09 m/s - Visibility: > 10000 m - Temperature: 21 °C - Dew point: 2 °C - Humidity: 28.5% - Pressure: 1005 hPa
Statistics

The table below shows the detailed information of all flights to/from Zonguldak, Zonguldak Airport (LTAS).

Ident Aircraft Coming fromFrom Going toTo Owner nameOwnerSpotted durationDurationDate
TC-NBE - A20N - Pegasus Airlines PGT4250 AIRBUS A-320neo A20N , Turkey (LTFJ) LTFJ
429 km
Zonguldak, Turkey (LTAS) LTAS
602 km
Pegasus Airlines Pegasus Airlines 00:48:36 00:48:36 Sat, 08 Aug 2020 18:42:47 +0000 8/8/2020 6:42 pm
Sat, 08 Aug 2020 19:31:23 +0000 8/8/2020 7:31 pm
TC-DCM - A320 - Pegasus Airlines PGT4250 AIRBUS A-320 A320 , Turkey (LTFJ) LTFJ
196 km
Zonguldak, Turkey (LTAS) LTAS
381 km
Pegasus Airlines Pegasus Airlines - - Tue, 04 Aug 2020 18:47:57 +0000 4/8/2020 6:47 pm
TC-CPJ - B738 - Pegasus Airlines PGT4250 BOEING 737-800 B738 , Turkey (LTFJ) LTFJ
37 km
Zonguldak, Turkey (LTAS) LTAS
236 km
Pegasus Airlines Pegasus Airlines 00:21:24 00:21:24 Sat, 01 Aug 2020 18:29:53 +0000 1/8/2020 6:29 pm
Sat, 01 Aug 2020 18:51:17 +0000 1/8/2020 6:51 pm